createdAt,value
2023-05-11T00:00:24.064Z,491.00
2023-05-11T00:01:24.061Z,479.00
2023-05-11T00:02:24.233Z,462.00
2023-05-11T00:03:24.699Z,500.00
2023-05-11T00:04:24.111Z,502.00
2023-05-11T00:05:24.080Z,500.00
2023-05-11T00:06:24.077Z,506.00
2023-05-11T00:07:24.142Z,501.00
2023-05-11T00:08:24.208Z,519.00
2023-05-11T00:09:24.272Z,519.00
2023-05-11T00:10:24.339Z,480.00
2023-05-11T00:11:24.435Z,448.00
2023-05-11T00:12:24.467Z,472.00
2023-05-11T00:13:24.540Z,507.00
2023-05-11T00:14:24.608Z,536.00
2023-05-11T00:15:24.702Z,552.00
2023-05-11T00:16:24.781Z,557.00
2023-05-11T00:17:24.826Z,537.00
2023-05-11T00:18:24.874Z,503.00
2023-05-11T00:19:24.940Z,453.00
2023-05-11T00:20:25.008Z,448.00
2023-05-11T00:21:25.095Z,473.00
2023-05-11T00:22:25.128Z,500.00
2023-05-11T00:23:25.283Z,504.00
2023-05-11T00:24:25.359Z,500.00
2023-05-11T00:25:25.374Z,503.00
2023-05-11T00:26:25.411Z,506.00
2023-05-11T00:27:25.526Z,491.00
2023-05-11T00:28:25.564Z,489.00
2023-05-11T00:29:25.597Z,506.00
2023-05-11T00:30:25.678Z,520.00
2023-05-11T00:31:26.525Z,519.00
2023-05-11T00:32:25.771Z,500.00
2023-05-11T00:33:25.776Z,500.00
2023-05-11T00:34:25.731Z,500.00
2023-05-11T00:35:25.736Z,501.00
2023-05-11T00:36:25.730Z,500.00
2023-05-11T00:37:26.194Z,491.00
2023-05-11T00:38:25.770Z,476.00
2023-05-11T00:39:25.796Z,500.00
2023-05-11T00:40:25.749Z,501.00
2023-05-11T00:41:25.767Z,499.00
2023-05-11T00:42:25.732Z,494.00
2023-05-11T00:43:25.753Z,510.00
2023-05-11T00:44:25.728Z,533.00
2023-05-11T00:45:25.725Z,604.00
2023-05-11T00:46:25.754Z,582.00
2023-05-11T00:47:25.754Z,599.00
2023-05-11T00:48:25.725Z,593.00
2023-05-11T00:49:25.727Z,622.00
2023-05-11T00:50:25.723Z,664.00
2023-05-11T00:51:25.719Z,716.00
2023-05-11T00:52:25.745Z,783.00
2023-05-11T00:53:25.735Z,836.00
2023-05-11T00:54:25.736Z,832.00
2023-05-11T00:55:25.733Z,641.00
2023-05-11T00:56:25.814Z,522.00
2023-05-11T00:57:25.852Z,415.00
2023-05-11T00:58:25.858Z,400.00
2023-05-11T00:59:25.914Z,400.00
2023-05-11T01:00:25.881Z,400.00
2023-05-11T01:01:25.949Z,420.00
2023-05-11T01:02:26.047Z,400.00
2023-05-11T01:03:25.943Z,400.00
2023-05-11T01:04:25.945Z,400.00
2023-05-11T01:05:25.960Z,400.00
2023-05-11T01:06:25.974Z,400.00
2023-05-11T01:07:25.989Z,400.00
2023-05-11T01:08:25.991Z,400.00
2023-05-11T01:09:26.010Z,400.00
2023-05-11T01:10:26.053Z,400.00
2023-05-11T01:11:26.136Z,400.00
2023-05-11T01:12:26.060Z,466.00
2023-05-11T01:13:26.110Z,505.00
2023-05-11T01:14:26.109Z,501.00
2023-05-11T01:15:26.175Z,561.00
2023-05-11T01:16:26.152Z,640.00
2023-05-11T01:17:26.186Z,616.00
2023-05-11T01:18:26.235Z,619.00
2023-05-11T01:19:26.261Z,626.00
2023-05-11T01:20:26.286Z,628.00
2023-05-11T01:21:26.352Z,623.00
2023-05-11T01:22:26.384Z,609.00
2023-05-11T01:23:26.464Z,681.00
2023-05-11T01:24:26.518Z,826.00
2023-05-11T01:25:26.560Z,593.00
2023-05-11T01:26:26.638Z,500.00
2023-05-11T01:27:26.614Z,400.00
2023-05-11T01:28:26.674Z,400.00
2023-05-11T01:29:26.653Z,400.00
2023-05-11T01:30:26.684Z,495.00
2023-05-11T01:31:26.808Z,600.00
2023-05-11T01:32:26.841Z,826.00
2023-05-11T01:33:26.890Z,937.00
2023-05-11T01:34:26.910Z,831.00
2023-05-11T01:35:26.967Z,822.00
2023-05-11T01:36:26.994Z,890.00
2023-05-11T01:37:27.035Z,738.00
2023-05-11T01:38:27.102Z,861.00
2023-05-11T01:39:27.149Z,925.00
2023-05-11T01:40:27.125Z,1089.00
2023-05-11T01:41:27.145Z,1640.00
2023-05-11T01:42:27.160Z,1982.00
2023-05-11T01:43:27.177Z,2120.00
2023-05-11T01:44:27.187Z,2123.00
2023-05-11T01:45:27.193Z,2300.00
2023-05-11T01:46:27.282Z,2528.00
2023-05-11T01:47:27.289Z,2659.00
2023-05-11T01:48:27.220Z,2647.00
2023-05-11T01:49:27.246Z,2651.00
2023-05-11T01:50:27.231Z,2800.00
2023-05-11T01:51:27.229Z,2830.00
2023-05-11T01:52:27.255Z,2771.00
2023-05-11T01:53:27.259Z,2719.00
2023-05-11T01:54:27.749Z,2724.00
2023-05-11T01:55:27.310Z,2866.00
2023-05-11T01:56:27.360Z,3132.00
2023-05-11T01:57:27.360Z,3351.00
2023-05-11T01:58:27.367Z,3394.00
2023-05-11T01:59:27.506Z,3459.00
2023-05-11T02:00:27.433Z,3597.00
2023-05-11T02:01:27.546Z,3593.00
2023-05-11T02:02:27.538Z,3552.00
2023-05-11T02:03:27.612Z,3563.00
2023-05-11T02:04:27.490Z,3431.00
2023-05-11T02:05:28.363Z,3455.00
2023-05-11T02:06:27.500Z,3536.00
2023-05-11T02:07:27.501Z,3505.00
2023-05-11T02:08:27.509Z,3398.00
2023-05-11T02:09:27.525Z,3292.00
2023-05-11T02:10:27.543Z,3268.00
2023-05-11T02:11:27.550Z,3358.00
2023-05-11T02:12:27.576Z,3416.00
2023-05-11T02:13:27.601Z,3456.00
2023-05-11T02:14:27.601Z,3388.00
2023-05-11T02:15:27.614Z,3269.00
2023-05-11T02:16:27.652Z,3224.00
2023-05-11T02:17:27.663Z,3236.00
2023-05-11T02:18:27.680Z,3186.00
2023-05-11T02:19:27.712Z,3193.00
2023-05-11T02:20:27.706Z,3072.00
2023-05-11T02:21:27.742Z,3081.00
2023-05-11T02:22:27.763Z,3109.00
2023-05-11T02:23:27.890Z,3145.00
2023-05-11T02:24:27.795Z,3189.00
2023-05-11T02:25:27.809Z,3223.00
2023-05-11T02:26:27.831Z,3237.00
2023-05-11T02:27:27.844Z,3201.00
2023-05-11T02:28:27.864Z,3253.00
2023-05-11T02:29:27.903Z,3230.00
2023-05-11T02:30:27.895Z,3175.00
2023-05-11T02:31:27.982Z,3095.00
2023-05-11T02:32:29.068Z,3068.00
2023-05-11T02:33:27.938Z,3039.00
2023-05-11T02:34:28.028Z,3012.00
2023-05-11T02:35:27.977Z,3023.00
2023-05-11T02:36:27.969Z,3080.00
2023-05-11T02:37:28.030Z,3200.00
2023-05-11T02:38:28.001Z,3492.00
2023-05-11T02:39:28.023Z,3723.00
2023-05-11T02:40:28.044Z,3905.00
2023-05-11T02:41:28.086Z,4024.00
2023-05-11T02:42:28.163Z,4045.00
2023-05-11T02:43:28.128Z,4007.00
2023-05-11T02:44:28.180Z,3773.00
2023-05-11T02:45:28.182Z,3839.00
2023-05-11T02:46:28.294Z,3913.00
2023-05-11T02:47:28.388Z,3939.00
2023-05-11T02:48:28.337Z,3979.00
2023-05-11T02:49:28.421Z,3967.00
2023-05-11T02:50:28.432Z,4026.00
2023-05-11T02:51:28.505Z,4058.00
2023-05-11T02:52:28.518Z,4039.00
2023-05-11T02:53:28.578Z,3980.00
2023-05-11T02:54:28.641Z,4007.00
2023-05-11T02:55:28.676Z,4041.00
2023-05-11T02:56:28.722Z,4088.00
2023-05-11T02:57:28.772Z,4162.00
2023-05-11T02:58:28.866Z,4223.00
2023-05-11T02:59:28.943Z,4381.00
2023-05-11T03:00:28.995Z,4508.00
2023-05-11T03:01:30.561Z,4423.00
2023-05-11T03:02:29.832Z,4582.00
2023-05-11T03:03:29.134Z,4588.00
2023-05-11T03:04:28.997Z,4586.00
2023-05-11T03:05:28.980Z,4520.00
2023-05-11T03:06:29.045Z,4413.00
2023-05-11T03:07:29.032Z,4414.00
2023-05-11T03:08:29.011Z,4386.00
2023-05-11T03:09:29.040Z,4328.00
2023-05-11T03:10:29.031Z,4257.00
2023-05-11T03:11:29.031Z,4205.00
2023-05-11T03:12:29.046Z,4217.00
2023-05-11T03:13:29.061Z,4276.00
2023-05-11T03:14:29.063Z,4272.00
2023-05-11T03:15:29.079Z,4040.00
2023-05-11T03:16:30.099Z,3908.00
2023-05-11T03:17:29.154Z,3780.00
2023-05-11T03:18:29.153Z,3696.00
2023-05-11T03:19:29.238Z,3645.00
2023-05-11T03:20:29.260Z,3612.00
2023-05-11T03:21:29.317Z,3588.00
2023-05-11T03:22:29.380Z,3650.00
2023-05-11T03:23:29.468Z,3568.00
2023-05-11T03:24:29.577Z,3429.00
2023-05-11T03:25:29.571Z,3400.00
2023-05-11T03:26:29.626Z,3423.00
2023-05-11T03:27:29.720Z,3490.00
2023-05-11T03:28:29.817Z,3436.00
2023-05-11T03:29:29.892Z,3479.00
2023-05-11T03:30:29.985Z,3563.00
2023-05-11T03:31:30.093Z,3381.00
2023-05-11T03:32:30.159Z,3318.00
2023-05-11T03:33:30.213Z,3220.00
2023-05-11T03:34:30.256Z,3280.00
2023-05-11T03:35:30.324Z,3379.00
2023-05-11T03:36:30.368Z,3457.00
2023-05-11T03:37:30.458Z,3492.00
2023-05-11T03:38:30.566Z,3393.00
2023-05-11T03:39:30.641Z,3184.00
2023-05-11T03:40:30.687Z,3055.00
2023-05-11T03:41:30.756Z,2969.00
2023-05-11T03:42:30.877Z,2863.00
2023-05-11T03:43:30.932Z,2904.00
2023-05-11T03:44:31.043Z,2936.00
2023-05-11T03:45:31.098Z,2891.00
2023-05-11T03:46:31.282Z,2802.00
2023-05-11T03:47:31.380Z,2802.00
2023-05-11T03:48:31.357Z,2892.00
2023-05-11T03:49:31.458Z,2967.00
2023-05-11T03:50:31.500Z,2929.00
2023-05-11T03:51:31.578Z,2946.00
2023-05-11T03:52:31.612Z,3088.00
2023-05-11T03:53:31.715Z,3264.00
2023-05-11T03:54:31.801Z,3365.00
2023-05-11T03:55:31.890Z,3293.00
2023-05-11T03:56:31.951Z,3338.00
2023-05-11T03:57:32.017Z,3419.00
2023-05-11T03:58:32.091Z,3596.00
2023-05-11T03:59:32.186Z,3622.00
2023-05-11T04:00:32.250Z,3488.00
2023-05-11T04:01:32.332Z,3420.00
2023-05-11T04:02:32.528Z,3424.00
2023-05-11T04:03:32.632Z,3424.00
2023-05-11T04:04:32.635Z,3457.00
2023-05-11T04:05:32.656Z,3457.00
2023-05-11T04:06:32.690Z,3477.00
2023-05-11T04:07:32.716Z,3492.00
2023-05-11T04:08:32.755Z,3427.00
2023-05-11T04:09:32.789Z,3328.00
2023-05-11T04:10:32.819Z,3378.00
2023-05-11T04:11:32.900Z,3403.00
2023-05-11T04:12:32.882Z,3425.00
2023-05-11T04:13:32.912Z,3519.00
2023-05-11T04:14:32.996Z,3646.00
2023-05-11T04:15:32.992Z,3651.00
2023-05-11T04:16:33.194Z,3819.00
2023-05-11T04:17:33.111Z,3918.00
2023-05-11T04:18:33.181Z,4031.00
2023-05-11T04:19:33.243Z,3956.00
2023-05-11T04:20:33.296Z,3837.00
2023-05-11T04:21:33.332Z,3766.00
2023-05-11T04:22:33.425Z,3741.00
2023-05-11T04:23:33.470Z,3783.00
2023-05-11T04:24:33.603Z,3806.00
2023-05-11T04:25:33.639Z,3708.00
2023-05-11T04:26:33.717Z,3735.00
2023-05-11T04:27:33.836Z,3738.00
2023-05-11T04:28:33.901Z,3663.00
2023-05-11T04:29:34.001Z,3724.00
2023-05-11T04:30:34.038Z,3638.00
2023-05-11T04:31:34.180Z,3513.00
2023-05-11T04:32:34.250Z,3397.00
2023-05-11T04:33:34.274Z,3346.00
2023-05-11T04:34:34.348Z,3396.00
2023-05-11T04:35:34.378Z,3424.00
2023-05-11T04:36:34.448Z,3550.00
2023-05-11T04:37:34.519Z,3639.00
2023-05-11T04:38:34.594Z,3720.00
2023-05-11T04:39:34.682Z,3814.00
2023-05-11T04:40:35.137Z,4019.00
2023-05-11T04:41:34.847Z,4108.00
2023-05-11T04:42:34.935Z,4186.00
2023-05-11T04:43:35.040Z,4268.00
2023-05-11T04:44:35.097Z,4382.00
2023-05-11T04:45:35.170Z,4523.00
2023-05-11T04:46:35.348Z,4516.00
2023-05-11T04:47:35.346Z,4475.00
2023-05-11T04:48:35.434Z,4470.00
2023-05-11T04:49:35.514Z,4507.00
2023-05-11T04:50:35.582Z,4578.00
2023-05-11T04:51:35.659Z,4592.00
2023-05-11T04:52:35.746Z,4591.00
2023-05-11T04:53:35.788Z,4635.00
2023-05-11T04:54:35.869Z,4540.00
2023-05-11T04:55:35.960Z,4614.00
2023-05-11T04:56:36.035Z,4552.00
2023-05-11T04:57:36.083Z,4512.00
2023-05-11T04:58:36.106Z,4481.00
2023-05-11T04:59:36.217Z,4421.00
2023-05-11T05:00:36.201Z,4362.00
2023-05-11T05:01:36.263Z,4256.00
2023-05-11T05:02:36.324Z,4275.00
2023-05-11T05:03:36.357Z,4409.00
2023-05-11T05:04:36.602Z,4433.00
2023-05-11T05:05:36.389Z,4230.00
2023-05-11T05:06:36.411Z,3770.00
2023-05-11T05:07:36.471Z,3576.00
2023-05-11T05:09:35.542Z,3267.00
2023-05-11T05:10:36.585Z,3261.00
2023-05-11T05:11:36.602Z,3342.00
2023-05-11T05:12:36.644Z,3435.00
2023-05-11T05:13:36.640Z,3606.00
2023-05-11T05:14:36.666Z,3567.00
2023-05-11T05:15:36.792Z,3564.00
2023-05-11T05:16:36.708Z,3555.00
2023-05-11T05:17:36.760Z,3297.00
2023-05-11T05:18:36.809Z,3352.00
2023-05-11T05:19:36.751Z,3359.00
2023-05-11T05:20:36.809Z,3141.00
2023-05-11T05:21:36.793Z,2989.00
2023-05-11T05:22:36.864Z,2919.00
2023-05-11T05:23:36.819Z,2793.00
2023-05-11T05:24:36.867Z,2769.00
2023-05-11T05:25:37.304Z,2715.00
2023-05-11T05:26:36.878Z,2661.00
2023-05-11T05:27:37.334Z,2684.00
2023-05-11T05:28:36.916Z,2984.00
2023-05-11T05:29:36.939Z,3262.00
2023-05-11T05:30:37.009Z,3494.00
2023-05-11T05:31:37.000Z,3685.00
2023-05-11T05:32:37.054Z,3754.00
2023-05-11T05:33:37.029Z,3709.00
2023-05-11T05:34:37.094Z,3612.00
2023-05-11T05:35:37.309Z,3509.00
2023-05-11T05:36:38.078Z,3572.00
2023-05-11T05:37:37.079Z,3982.00
2023-05-11T05:38:37.323Z,4296.00
2023-05-11T05:39:37.172Z,4597.00
2023-05-11T05:40:38.231Z,4335.00
2023-05-11T05:41:37.289Z,4198.00
2023-05-11T05:42:37.327Z,3882.00
2023-05-11T05:43:37.357Z,3338.00
2023-05-11T05:44:37.830Z,3129.00
2023-05-11T05:45:37.826Z,3157.00
2023-05-11T05:46:37.640Z,3058.00
2023-05-11T05:47:37.691Z,2928.00
2023-05-11T05:48:38.826Z,2957.00
2023-05-11T05:49:41.315Z,3106.00
2023-05-11T05:50:41.077Z,3110.00
2023-05-11T05:51:37.801Z,3113.00
2023-05-11T05:52:40.867Z,3137.00
2023-05-11T05:53:38.758Z,3114.00
2023-05-11T05:55:45.333Z,3093.00
2023-05-11T05:56:37.911Z,2900.00
2023-05-11T05:57:45.290Z,2781.00
2023-05-11T05:58:37.892Z,2438.00
2023-05-11T05:59:45.292Z,2535.00
2023-05-11T06:00:39.060Z,2521.00
2023-05-11T06:01:45.201Z,2460.00
2023-05-11T06:03:41.649Z,2655.00
2023-05-11T06:05:41.101Z,2657.00
2023-05-11T06:08:08.319Z,2798.00
2023-05-11T06:08:37.950Z,2869.00
2023-05-11T06:10:45.361Z,2916.00
2023-05-11T06:11:45.405Z,2815.00
2023-05-11T06:12:41.199Z,2706.00
2023-05-11T06:13:38.018Z,2649.00
2023-05-11T06:14:38.095Z,2666.00
2023-05-11T06:15:39.118Z,2517.00
2023-05-11T06:16:38.224Z,2406.00
2023-05-11T06:17:38.158Z,2422.00
2023-05-11T06:18:38.243Z,2479.00
2023-05-11T06:19:38.224Z,2338.00
2023-05-11T11:49:35.182Z,500.00
2023-05-11T11:50:36.149Z,500.00
2023-05-11T11:51:36.161Z,500.00
2023-05-11T11:52:36.508Z,500.00
2023-05-11T11:53:36.159Z,500.00
2023-05-11T11:54:36.154Z,516.00
2023-05-11T11:55:36.149Z,559.00
2023-05-11T11:56:36.171Z,556.00
2023-05-11T11:57:36.565Z,662.00
2023-05-11T11:58:36.156Z,646.00
2023-05-11T11:59:36.157Z,599.00
2023-05-11T12:00:36.161Z,545.00
2023-05-11T12:01:36.163Z,418.00
2023-05-11T12:02:36.568Z,400.00
2023-05-11T12:03:36.359Z,400.00
2023-05-11T12:04:36.198Z,400.00
2023-05-11T12:05:36.197Z,400.00
2023-05-11T12:06:36.193Z,400.00
2023-05-11T12:07:36.506Z,506.00
2023-05-11T12:08:36.187Z,532.00
2023-05-11T12:09:36.213Z,436.00
2023-05-11T12:10:36.183Z,427.00
2023-05-11T12:11:36.174Z,415.00
2023-05-11T12:12:36.540Z,488.00
2023-05-11T12:13:36.176Z,457.00
2023-05-11T12:14:36.175Z,400.00
2023-05-11T12:15:36.210Z,458.00
2023-05-11T12:16:36.269Z,516.00
2023-05-11T12:17:36.527Z,520.00
2023-05-11T12:18:36.380Z,548.00
2023-05-11T12:19:36.302Z,648.00
2023-05-11T12:20:36.308Z,718.00
2023-05-11T12:21:36.372Z,550.00
2023-05-11T12:22:36.359Z,600.00
2023-05-11T12:23:36.516Z,723.00
2023-05-11T12:24:36.432Z,1092.00
2023-05-11T12:25:36.488Z,1072.00
2023-05-11T12:26:36.577Z,1115.00
2023-05-11T12:27:36.660Z,1257.00
2023-05-11T12:28:36.692Z,1622.00
2023-05-11T12:29:36.742Z,1735.00
2023-05-11T12:30:36.772Z,2139.00
2023-05-11T12:31:36.864Z,2457.00
2023-05-11T12:32:36.908Z,2495.00
2023-05-11T12:33:36.902Z,2018.00
2023-05-11T12:34:36.972Z,1726.00
2023-05-11T12:35:37.094Z,1681.00
2023-05-11T12:36:37.123Z,1853.00
2023-05-11T12:37:37.256Z,2004.00
2023-05-11T12:38:37.513Z,2277.00
2023-05-11T12:39:37.216Z,2582.00
2023-05-11T12:40:37.281Z,3021.00
2023-05-11T12:41:37.292Z,2864.00
2023-05-11T12:42:37.380Z,2706.00
2023-05-11T12:43:37.751Z,3755.00
2023-05-11T12:44:37.537Z,3656.00
2023-05-11T12:45:37.672Z,3271.00
2023-05-11T12:46:37.761Z,2973.00
2023-05-11T12:47:37.901Z,3049.00
2023-05-11T12:48:37.888Z,3227.00
2023-05-11T12:49:37.831Z,2862.00
2023-05-11T12:50:37.803Z,2769.00
2023-05-11T12:51:38.027Z,2850.00
2023-05-11T12:52:37.883Z,3003.00
2023-05-11T12:53:37.971Z,2858.00
2023-05-11T12:54:38.038Z,2524.00
2023-05-11T12:55:38.081Z,2467.00
2023-05-11T12:56:38.148Z,2240.00
2023-05-11T12:57:38.537Z,2338.00
2023-05-11T12:58:38.276Z,2360.00
2023-05-11T12:59:38.378Z,2581.00
2023-05-11T13:00:39.442Z,2949.00
2023-05-11T13:01:38.542Z,2869.00
2023-05-11T13:02:39.077Z,2696.00
2023-05-11T13:03:39.126Z,2699.00
2023-05-11T13:04:38.682Z,2225.00
2023-05-11T13:05:38.764Z,2111.00
2023-05-11T13:06:38.839Z,2268.00
2023-05-11T13:07:39.026Z,1855.00
2023-05-11T13:08:38.971Z,2194.00
2023-05-11T13:09:39.045Z,2647.00
2023-05-11T13:10:39.079Z,2611.00
2023-05-11T13:11:39.131Z,2264.00
2023-05-11T13:12:39.208Z,2035.00
2023-05-11T13:13:39.305Z,2171.00
2023-05-11T13:14:39.823Z,2390.00
2023-05-11T13:15:39.426Z,2405.00
2023-05-11T13:16:39.443Z,2350.00
2023-05-11T13:17:39.545Z,2414.00
2023-05-11T13:18:39.543Z,2414.00
2023-05-11T13:19:39.523Z,2249.00
2023-05-11T13:20:39.553Z,2524.00
2023-05-11T13:21:39.694Z,2533.00
2023-05-11T13:22:39.699Z,2339.00
2023-05-11T13:23:39.713Z,2371.00
2023-05-11T13:24:39.749Z,2483.00
2023-05-11T13:25:39.851Z,2671.00
2023-05-11T13:26:39.888Z,2808.00
2023-05-11T13:27:40.009Z,2625.00
2023-05-11T13:28:40.020Z,2857.00
2023-05-11T13:29:40.082Z,2681.00
2023-05-11T13:30:40.560Z,2461.00
2023-05-11T13:31:40.255Z,2421.00
2023-05-11T13:32:40.301Z,2171.00
2023-05-11T13:33:40.528Z,1925.00
2023-05-11T13:34:40.352Z,2009.00
2023-05-11T13:35:40.338Z,2197.00
2023-05-11T13:36:40.410Z,2354.00
2023-05-11T13:37:40.450Z,2470.00
2023-05-11T13:38:40.531Z,2448.00
2023-05-11T13:39:40.573Z,2301.00
2023-05-11T13:40:40.623Z,2341.00
2023-05-11T13:41:40.738Z,2337.00
2023-05-11T13:42:40.755Z,2273.00
2023-05-11T13:43:40.832Z,2371.00
2023-05-11T13:44:40.902Z,2589.00
2023-05-11T13:45:40.945Z,2872.00
2023-05-11T13:46:41.071Z,2924.00
2023-05-11T13:47:43.170Z,2938.00
2023-05-11T13:48:41.089Z,2952.00
2023-05-11T13:49:41.151Z,3049.00
2023-05-11T13:50:41.114Z,3093.00
2023-05-11T13:51:41.145Z,3400.00
2023-05-11T13:52:41.156Z,3819.00
2023-05-11T13:53:41.190Z,3873.00
2023-05-11T13:54:41.219Z,3735.00
2023-05-11T13:55:41.258Z,3573.00
2023-05-11T13:56:41.333Z,3347.00
2023-05-11T13:57:41.368Z,3189.00
2023-05-11T13:58:41.315Z,3515.00
2023-05-11T13:59:41.328Z,3748.00
2023-05-11T14:00:41.374Z,3477.00
2023-05-11T14:01:41.374Z,3667.00
2023-05-11T14:02:41.453Z,3769.00
2023-05-11T14:03:41.460Z,3960.00
2023-05-11T14:04:41.405Z,3924.00
2023-05-11T14:05:41.420Z,3804.00
2023-05-11T14:06:41.423Z,3722.00
2023-05-11T14:07:49.188Z,3412.00
2023-05-11T14:08:41.520Z,3072.00
2023-05-11T14:09:41.552Z,3096.00
2023-05-11T14:10:42.054Z,3109.00
2023-05-11T14:11:41.600Z,3375.00
2023-05-11T14:12:41.615Z,3430.00
2023-05-11T14:13:42.076Z,3248.00
2023-05-11T14:14:41.667Z,3163.00
2023-05-11T14:15:41.690Z,3166.00
2023-05-11T14:16:41.697Z,3080.00
2023-05-11T14:17:41.812Z,3173.00
2023-05-11T14:18:42.166Z,3375.00
2023-05-11T14:19:41.780Z,3437.00
2023-05-11T14:20:41.964Z,3301.00
2023-05-11T14:21:41.755Z,3422.00
2023-05-11T14:22:41.812Z,3578.00
2023-05-11T14:23:49.982Z,3545.00
2023-05-11T14:24:42.057Z,3455.00
2023-05-11T14:25:41.793Z,3499.00
2023-05-11T14:26:41.800Z,3332.00
2023-05-11T14:27:42.059Z,3087.00
2023-05-11T14:28:41.871Z,3259.00
2023-05-11T14:29:44.201Z,3351.00
2023-05-11T14:30:41.968Z,3468.00
2023-05-11T14:31:41.946Z,3454.00
2023-05-11T14:32:41.998Z,3537.00
2023-05-11T14:33:41.984Z,3497.00
2023-05-11T14:34:42.003Z,3466.00
2023-05-11T14:35:42.037Z,4657.00
2023-05-11T14:36:42.042Z,5866.00
2023-05-11T14:37:42.559Z,5081.00
2023-05-11T14:38:42.095Z,4386.00
2023-05-11T14:39:42.140Z,4422.00
2023-05-11T14:40:42.114Z,4213.00
2023-05-11T14:41:42.146Z,4391.00
2023-05-11T14:42:42.171Z,4296.00
2023-05-11T14:43:42.173Z,4390.00
2023-05-11T14:44:42.177Z,4321.00
2023-05-11T14:45:42.233Z,4178.00
2023-05-11T14:46:42.374Z,4084.00
2023-05-11T14:47:42.327Z,4064.00
2023-05-11T14:48:42.288Z,4214.00
2023-05-11T14:49:42.319Z,4158.00
2023-05-11T14:50:42.350Z,3897.00
2023-05-11T14:51:42.395Z,3888.00
2023-05-11T14:52:42.427Z,3918.00
2023-05-11T14:53:42.945Z,3736.00
2023-05-11T14:54:43.056Z,3636.00
2023-05-11T14:55:42.522Z,3323.00
2023-05-11T14:56:42.548Z,3195.00
2023-05-11T14:57:42.566Z,3362.00
2023-05-11T14:58:42.599Z,3562.00
2023-05-11T14:59:55.226Z,3673.00
2023-05-11T15:00:42.649Z,3678.00
2023-05-11T15:01:43.179Z,3716.00
2023-05-11T15:02:42.756Z,3737.00
2023-05-11T15:03:42.760Z,3811.00
2023-05-11T15:04:42.762Z,3769.00
2023-05-11T15:05:42.802Z,3831.00
2023-05-11T15:06:42.833Z,4146.00
2023-05-11T15:07:42.869Z,4355.00
2023-05-11T15:08:42.909Z,4524.00
2023-05-11T15:09:42.931Z,4560.00
2023-05-11T15:10:42.960Z,4247.00
2023-05-11T15:11:43.012Z,4211.00
2023-05-11T15:12:43.077Z,4094.00
2023-05-11T15:13:43.113Z,4284.00
2023-05-11T15:14:43.151Z,4202.00
2023-05-11T15:15:43.182Z,4291.00
2023-05-11T15:18:12.625Z,500.00
2023-05-11T15:19:03.008Z,500.00
2023-05-11T15:20:02.962Z,500.00
2023-05-11T15:21:02.981Z,500.00
2023-05-11T15:22:02.953Z,500.00
2023-05-11T15:23:02.958Z,500.00
2023-05-11T15:24:02.962Z,412.00
2023-05-11T15:25:02.944Z,400.00
2023-05-11T15:26:02.937Z,490.00
2023-05-11T15:27:02.914Z,496.00
2023-05-11T15:28:02.915Z,544.00
2023-05-11T15:29:03.342Z,534.00
2023-05-11T15:30:02.925Z,660.00
2023-05-11T15:31:02.899Z,602.00
2023-05-11T15:32:03.046Z,636.00
2023-05-11T15:33:02.944Z,911.00
2023-05-11T15:34:03.036Z,673.00
2023-05-11T15:35:02.945Z,554.00
2023-05-11T15:36:02.956Z,432.00
2023-05-11T15:37:02.937Z,486.00
2023-05-11T15:38:02.961Z,618.00
2023-05-11T15:39:02.976Z,690.00
2023-05-11T15:40:02.991Z,734.00
2023-05-11T15:41:03.059Z,767.00
2023-05-11T15:42:03.132Z,858.00
2023-05-11T15:43:03.144Z,831.00
2023-05-11T15:44:03.192Z,673.00
2023-05-11T15:45:03.206Z,652.00
2023-05-11T15:46:03.265Z,728.00
2023-05-11T15:47:03.228Z,701.00
2023-05-11T15:48:03.271Z,625.00
2023-05-11T15:49:03.253Z,713.00
2023-05-11T15:50:03.277Z,592.00
2023-05-11T15:51:03.283Z,500.00
2023-05-11T15:52:03.321Z,410.00
2023-05-11T15:53:03.328Z,431.00
2023-05-11T15:54:03.842Z,500.00
2023-05-11T15:55:03.397Z,518.00
2023-05-11T15:56:03.454Z,577.00
2023-05-11T15:57:03.507Z,604.00
2023-05-11T15:58:03.528Z,863.00
2023-05-11T15:59:03.578Z,760.00
2023-05-11T16:00:03.646Z,781.00
2023-05-11T16:01:03.768Z,1058.00
2023-05-11T16:02:03.721Z,1191.00
2023-05-11T16:03:03.882Z,1162.00
2023-05-11T16:04:03.844Z,1266.00
2023-05-11T16:05:03.874Z,1297.00
2023-05-11T16:06:03.975Z,1261.00
2023-05-11T16:07:03.968Z,1413.00
2023-05-11T16:08:04.031Z,1611.00
2023-05-11T16:09:04.056Z,1897.00
2023-05-11T16:10:04.128Z,1981.00
2023-05-11T16:11:04.201Z,1911.00
2023-05-11T16:12:04.216Z,1786.00
2023-05-11T16:13:04.248Z,1435.00
2023-05-11T16:14:04.258Z,1436.00
2023-05-11T16:15:04.315Z,1710.00
2023-05-11T16:16:04.384Z,1907.00
2023-05-11T16:17:04.719Z,1815.00
2023-05-11T16:18:05.347Z,1995.00
2023-05-11T16:19:04.585Z,2138.00
2023-05-11T16:20:04.553Z,1789.00
2023-05-11T16:21:04.607Z,1532.00
2023-05-11T16:22:04.749Z,1521.00
2023-05-11T16:23:04.742Z,1705.00
2023-05-11T16:24:04.759Z,1755.00
2023-05-11T16:25:04.767Z,1582.00
2023-05-11T16:26:04.793Z,1723.00
2023-05-11T16:27:04.821Z,1880.00
2023-05-11T16:28:04.860Z,1858.00
2023-05-11T16:29:04.860Z,1745.00
2023-05-11T16:30:17.991Z,1712.00
2023-05-11T16:31:04.950Z,1688.00
2023-05-11T16:32:04.852Z,1568.00
2023-05-11T16:33:04.867Z,1516.00
2023-05-11T16:34:04.855Z,1585.00
2023-05-11T16:35:04.840Z,1669.00
2023-05-11T16:36:04.820Z,1791.00
2023-05-11T16:37:04.834Z,1870.00
2023-05-11T16:38:04.844Z,1797.00
2023-05-11T16:39:04.808Z,1654.00
2023-05-11T16:40:04.810Z,1859.00
2023-05-11T16:41:04.801Z,1920.00
2023-05-11T16:42:04.781Z,1879.00
2023-05-11T16:43:04.810Z,1747.00
2023-05-11T16:44:04.753Z,1751.00
2023-05-11T16:45:04.763Z,1802.00
2023-05-11T16:46:04.771Z,1909.00
2023-05-11T16:47:04.814Z,1945.00
2023-05-11T16:48:04.740Z,1832.00
2023-05-11T16:49:04.740Z,1911.00
2023-05-11T16:50:04.702Z,1819.00
2023-05-11T16:51:04.692Z,1789.00
2023-05-11T16:52:04.694Z,1800.00
2023-05-11T16:53:04.692Z,1718.00
2023-05-11T16:54:04.845Z,1868.00
2023-05-11T16:55:04.686Z,2022.00
2023-05-11T16:56:04.679Z,1999.00
2023-05-11T16:57:04.684Z,1984.00
2023-05-11T16:58:04.685Z,2061.00
2023-05-11T16:59:04.681Z,2077.00
2023-05-11T17:00:04.688Z,2158.00
2023-05-11T17:01:04.655Z,2074.00
2023-05-11T17:02:04.746Z,1809.00
2023-05-11T17:03:04.792Z,1756.00
2023-05-11T17:04:04.733Z,1601.00
2023-05-11T17:05:04.763Z,1590.00
2023-05-11T17:06:04.811Z,1559.00
2023-05-11T17:07:04.864Z,1560.00
2023-05-11T17:08:04.895Z,1513.00
2023-05-11T17:09:04.955Z,1437.00
2023-05-11T17:10:05.006Z,1305.00
2023-05-11T17:11:05.033Z,1264.00
2023-05-11T17:12:05.088Z,1216.00
2023-05-11T17:13:05.121Z,1278.00
2023-05-11T17:14:05.173Z,1445.00
2023-05-11T17:15:05.157Z,1496.00
2023-05-11T17:16:05.187Z,1473.00
2023-05-11T17:17:05.179Z,1585.00
2023-05-11T17:18:05.305Z,1595.00
2023-05-11T17:19:05.356Z,1660.00
2023-05-11T17:20:05.363Z,1585.00
2023-05-11T17:21:05.400Z,1747.00
2023-05-11T17:22:05.431Z,1806.00
2023-05-11T17:23:05.457Z,1890.00
2023-05-11T17:24:05.509Z,1773.00
2023-05-11T17:25:05.496Z,1752.00
2023-05-11T17:26:05.542Z,1648.00
2023-05-11T17:27:05.535Z,1648.00
2023-05-11T17:28:05.565Z,1596.00
2023-05-11T17:29:05.588Z,1410.00
2023-05-11T17:30:05.634Z,1400.00
2023-05-11T17:31:05.734Z,1412.00
2023-05-11T17:32:05.998Z,1501.00
2023-05-11T17:33:06.185Z,1763.00
2023-05-11T17:34:05.913Z,1573.00
2023-05-11T17:35:05.784Z,1399.00
2023-05-11T17:36:05.820Z,1292.00
2023-05-11T17:37:05.827Z,1392.00
2023-05-11T17:38:05.863Z,1306.00
2023-05-11T17:39:05.874Z,1295.00
2023-05-11T17:40:05.888Z,1260.00
2023-05-11T17:41:05.896Z,1335.00
2023-05-11T17:42:05.986Z,1324.00
2023-05-11T17:43:05.955Z,1327.00
2023-05-11T17:44:06.025Z,1425.00
2023-05-11T17:45:06.052Z,1544.00
2023-05-11T17:46:06.192Z,1557.00
2023-05-11T17:47:06.154Z,1756.00
2023-05-11T17:48:06.217Z,1815.00